Time;durP1;ratioP1;P1;durP2;ratioP2;P2;SDS_P1;SDS_P2;PMS_P1;PMS_P2;Temp;Humidity;BMP_temperature;BMP_pressure;BME280_temperature;BME280_humidity;BME280_pressure;Samples;Min_cycle;Max_cycle;Signal;HPM_P1;HPM_P2
2020/12/17 00:00:18;;;;;;;34.03;22.33;;;5.30;74.40;;;;;;5011398;28;20049;-72
2020/12/17 00:02:45;;;;;;;43.67;23.67;;;5.30;74.60;;;;;;5010649;28;20052;-72
2020/12/17 00:05:13;;;;;;;39.30;23.77;;;5.30;74.60;;;;;;5011199;28;20053;-73
2020/12/17 00:07:41;;;;;;;35.10;22.42;;;5.20;75.40;;;;;;5008154;28;20500;-72
2020/12/17 00:10:10;;;;;;;36.42;21.52;;;5.20;76.20;;;;;;5008255;28;20045;-72
2020/12/17 00:12:38;;;;;;;37.30;23.15;;;5.20;75.80;;;;;;5011018;28;20058;-72
2020/12/17 00:15:06;;;;;;;36.10;24.10;;;5.20;75.90;;;;;;5012253;28;20052;-72
2020/12/17 00:17:40;;;;;;;34.88;22.30;;;5.20;76.40;;;;;;5011012;28;20122;-72
2020/12/17 00:20:07;;;;;;;35.05;23.42;;;5.20;75.90;;;;;;5007096;28;20068;-72
2020/12/17 00:22:34;;;;;;;37.78;21.70;;;5.10;75.50;;;;;;5012677;28;20053;-72
2020/12/17 00:25:03;;;;;;;34.20;21.25;;;5.10;75.70;;;;;;5010266;28;20080;-72
2020/12/17 00:27:30;;;;;;;29.30;20.48;;;5.10;76.20;;;;;;5009850;28;20056;-72
2020/12/17 00:29:57;;;;;;;27.70;19.95;;;5.10;75.80;;;;;;5007388;28;20041;-72
2020/12/17 00:32:24;;;;;;;31.88;19.10;;;5.10;75.40;;;;;;5012142;28;20064;-72
2020/12/17 00:34:51;;;;;;;27.45;17.75;;;5.10;75.10;;;;;;5012344;28;20537;-72
2020/12/17 00:37:18;;;;;;;30.70;19.73;;;5.10;74.40;;;;;;5010956;28;20048;-72
2020/12/17 00:39:45;;;;;;;31.40;19.83;;;5.10;75.80;;;;;;5007292;28;20050;-73
2020/12/17 00:42:12;;;;;;;30.33;18.77;;;5.10;74.60;;;;;;5012262;28;20133;-72
2020/12/17 00:44:41;;;;;;;28.77;18.75;;;5.20;73.20;;;;;;5011402;28;20446;-72
2020/12/17 00:47:08;;;;;;;26.98;17.75;;;5.20;72.20;;;;;;5010607;28;20045;-72
2020/12/17 00:49:34;;;;;;;28.20;18.75;;;5.20;71.80;;;;;;5007251;28;20046;-72
2020/12/17 00:52:02;;;;;;;26.08;17.02;;;5.20;71.80;;;;;;5011194;28;20052;-72
2020/12/17 00:54:29;;;;;;;27.85;18.67;;;5.20;70.60;;;;;;5010481;28;20148;-72
2020/12/17 00:56:56;;;;;;;26.35;17.38;;;5.20;70.50;;;;;;5009311;28;20049;-73
2020/12/17 00:59:23;;;;;;;23.90;16.08;;;5.20;70.50;;;;;;5005181;28;20049;-72
2020/12/17 01:01:51;;;;;;;29.08;17.95;;;5.20;70.50;;;;;;5010658;28;20046;-72
2020/12/17 01:04:18;;;;;;;24.13;16.65;;;5.10;69.60;;;;;;5012399;28;20050;-72
2020/12/17 01:06:45;;;;;;;24.55;16.92;;;5.10;69.30;;;;;;5009645;28;20060;-72
2020/12/17 01:09:12;;;;;;;27.90;18.48;;;5.00;68.80;;;;;;5008548;28;20056;-72
2020/12/17 01:11:39;;;;;;;26.88;18.17;;;5.00;68.90;;;;;;5010184;28;20064;-72
2020/12/17 01:14:06;;;;;;;27.38;16.92;;;4.90;69.10;;;;;;5012348;28;20046;-72
2020/12/17 01:16:33;;;;;;;27.35;17.88;;;4.90;70.00;;;;;;5010087;28;20045;-73
2020/12/17 01:19:00;;;;;;;32.00;18.58;;;4.90;69.60;;;;;;5006081;28;20049;-73
2020/12/17 01:21:27;;;;;;;27.63;17.85;;;4.90;69.30;;;;;;5010923;28;20052;-72
2020/12/17 01:23:54;;;;;;;27.15;17.20;;;4.90;69.20;;;;;;5009925;28;20045;-73
2020/12/17 01:26:21;;;;;;;31.30;18.23;;;4.80;69.40;;;;;;5017309;28;20483;-71
2020/12/17 01:28:48;;;;;;;30.05;18.73;;;4.80;69.00;;;;;;5008271;28;20058;-72
2020/12/17 01:31:16;;;;;;;28.98;18.05;;;4.80;69.50;;;;;;5015045;28;20454;-72
2020/12/17 01:33:43;;;;;;;28.90;18.17;;;4.80;70.10;;;;;;5015779;28;20137;-71
2020/12/17 01:36:11;;;;;;;28.92;18.33;;;4.70;70.20;;;;;;5013333;28;20056;-72
2020/12/17 01:38:39;;;;;;;29.02;19.00;;;4.70;71.00;;;;;;5008464;28;20053;-74
2020/12/17 01:41:11;;;;;;;28.02;18.08;;;4.70;71.50;;;;;;5017975;28;20415;-73
2020/12/17 01:43:40;;;;;;;29.60;19.23;;;4.70;72.20;;;;;;5024997;28;20049;-73
2020/12/17 01:46:07;;;;;;;30.33;18.17;;;4.70;72.00;;;;;;5020346;28;20109;-72
2020/12/17 01:48:35;;;;;;;28.90;18.90;;;4.60;72.40;;;;;;5011713;28;20073;-74
2020/12/17 01:51:03;;;;;;;29.70;19.30;;;4.60;73.40;;;;;;5012867;28;20076;-73
2020/12/17 01:53:37;;;;;;;30.73;18.70;;;4.60;73.90;;;;;;5018667;28;20059;-72
2020/12/17 01:56:06;;;;;;;31.05;20.17;;;4.50;73.70;;;;;;5019470;28;20052;-71
2020/12/17 01:58:39;;;;;;;29.20;20.17;;;4.50;74.80;;;;;;5014575;28;20410;-74
2020/12/17 02:01:11;;;;;;;27.98;19.08;;;4.40;75.10;;;;;;5018458;28;20132;-71
2020/12/17 02:03:38;;;;;;;29.35;19.67;;;4.40;75.50;;;;;;5018094;28;20058;-72
2020/12/17 02:06:05;;;;;;;29.08;19.27;;;4.30;75.90;;;;;;5023268;28;20059;-71
2020/12/17 02:08:38;;;;;;;28.70;19.30;;;4.30;76.30;;;;;;5012151;28;20041;-72
2020/12/17 02:11:09;;;;;;;30.40;19.98;;;4.30;76.80;;;;;;5018671;28;20068;-72
2020/12/17 02:13:37;;;;;;;31.80;20.08;;;4.30;77.40;;;;;;5019687;28;20057;-73
2020/12/17 02:16:05;;;;;;;30.33;19.42;;;4.30;77.40;;;;;;5021383;28;20046;-72
2020/12/17 02:18:33;;;;;;;32.33;20.60;;;4.30;77.60;;;;;;5019049;28;20073;-72
2020/12/17 02:21:00;;;;;;;29.27;20.48;;;4.30;77.60;;;;;;5019536;28;20052;-72
2020/12/17 02:23:27;;;;;;;29.92;20.13;;;4.30;77.50;;;;;;5014435;28;20411;-72
2020/12/17 02:25:55;;;;;;;31.98;19.35;;;4.30;77.40;;;;;;5016124;28;20056;-72
2020/12/17 02:28:23;;;;;;;31.60;20.50;;;4.30;77.20;;;;;;5011315;28;20062;-72
2020/12/17 02:34:31;;;;;;;30.83;20.95;;;4.40;77.70;;;;;;5013316;28;20105;-72
2020/12/17 02:36:58;;;;;;;33.63;21.73;;;4.30;77.00;;;;;;5019221;28;20042;-72
2020/12/17 02:39:25;;;;;;;31.95;21.35;;;4.30;76.80;;;;;;5013639;28;20052;-72
2020/12/17 02:41:53;;;;;;;33.53;21.25;;;4.20;76.80;;;;;;5015844;28;20053;-71
2020/12/17 02:44:20;;;;;;;34.70;21.42;;;4.20;76.60;;;;;;5019127;28;20045;-71
2020/12/17 02:46:47;;;;;;;29.75;20.73;;;4.10;77.10;;;;;;5014653;28;20416;-73
2020/12/17 02:49:14;;;;;;;30.63;19.65;;;4.10;77.40;;;;;;5015431;28;20567;-72
2020/12/17 02:51:41;;;;;;;30.88;19.88;;;4.20;76.80;;;;;;5017653;28;20517;-73
2020/12/17 02:54:08;;;;;;;29.63;20.20;;;4.10;76.00;;;;;;5022371;28;20047;-74
2020/12/17 02:56:34;;;;;;;32.85;20.67;;;4.10;76.80;;;;;;5023529;28;20049;-72
2020/12/17 02:59:02;;;;;;;29.83;20.05;;;4.10;76.40;;;;;;5016553;28;20068;-72
2020/12/17 03:01:29;;;;;;;31.15;20.75;;;4.10;77.00;;;;;;5019208;28;20149;-71
2020/12/17 03:03:56;;;;;;;29.65;19.45;;;4.10;76.90;;;;;;5018201;28;20053;-72
2020/12/17 03:06:23;;;;;;;33.00;20.63;;;4.10;77.10;;;;;;5017228;28;20088;-73
2020/12/17 03:08:50;;;;;;;31.20;20.23;;;4.00;77.20;;;;;;5015982;28;20053;-73
2020/12/17 03:11:17;;;;;;;34.08;21.45;;;4.00;77.80;;;;;;5024938;28;20572;-73
2020/12/17 03:13:44;;;;;;;35.15;22.77;;;4.00;77.40;;;;;;5017621;28;20049;-72
2020/12/17 03:16:12;;;;;;;30.75;21.13;;;4.00;77.50;;;;;;5011652;28;20506;-72
2020/12/17 03:18:39;;;;;;;34.85;22.40;;;4.00;77.80;;;;;;5018246;28;20120;-72
2020/12/17 03:21:06;;;;;;;34.20;22.38;;;3.90;77.30;;;;;;5016933;28;20511;-72
2020/12/17 03:23:32;;;;;;;35.25;21.45;;;3.90;77.50;;;;;;5014144;28;20149;-73
2020/12/17 03:26:00;;;;;;;33.05;19.92;;;3.90;78.10;;;;;;5015000;28;20057;-73
2020/12/17 03:28:26;;;;;;;29.42;20.58;;;3.90;78.10;;;;;;5010301;28;20046;-72
2020/12/17 03:30:53;;;;;;;32.30;19.95;;;3.90;78.00;;;;;;5013597;28;20057;-72
2020/12/17 03:33:21;;;;;;;32.40;20.13;;;4.00;77.80;;;;;;5018882;28;20046;-73
2020/12/17 03:35:48;;;;;;;33.58;21.63;;;3.90;77.20;;;;;;5013150;28;20054;-73
2020/12/17 03:38:26;;;;;;;34.45;20.55;;;3.90;77.20;;;;;;5012412;28;20046;-73
2020/12/17 03:40:53;;;;;;;26.27;18.58;;;3.90;77.00;;;;;;5021537;28;20049;-72
2020/12/17 03:43:20;;;;;;;31.48;19.88;;;3.90;76.70;;;;;;5018858;28;20504;-73
2020/12/17 03:45:47;;;;;;;29.65;20.00;;;3.90;76.20;;;;;;5018122;28;20060;-72
2020/12/17 03:48:14;;;;;;;31.15;19.98;;;3.90;75.80;;;;;;5014667;28;20045;-72
2020/12/17 03:50:42;;;;;;;31.52;20.30;;;3.90;76.30;;;;;;5020860;28;20054;-73
2020/12/17 03:53:09;;;;;;;31.08;19.92;;;3.90;76.40;;;;;;5023808;28;20057;-73
2020/12/17 03:55:36;;;;;;;34.13;21.05;;;3.90;76.40;;;;;;5015471;28;20079;-72
2020/12/17 03:58:02;;;;;;;34.05;21.73;;;3.90;76.60;;;;;;5016381;28;20416;-72
2020/12/17 04:00:29;;;;;;;37.20;20.85;;;3.90;76.00;;;;;;5013963;28;20511;-72
2020/12/17 04:02:56;;;;;;;29.45;19.90;;;3.90;75.30;;;;;;5015889;28;20048;-72
2020/12/17 04:05:23;;;;;;;34.53;20.00;;;3.90;75.70;;;;;;5016383;28;20064;-72
2020/12/17 04:07:51;;;;;;;30.35;19.33;;;3.90;74.70;;;;;;5018809;28;20426;-73
2020/12/17 04:10:18;;;;;;;31.75;20.00;;;3.90;75.10;;;;;;5023404;28;20136;-73
2020/12/17 04:12:45;;;;;;;28.75;19.30;;;3.90;75.00;;;;;;5016177;28;20512;-73
2020/12/17 04:15:11;;;;;;;30.85;19.25;;;3.90;74.60;;;;;;5018263;28;20056;-72
2020/12/17 04:17:38;;;;;;;27.77;18.98;;;3.90;74.30;;;;;;5009958;28;20401;-73
2020/12/17 04:20:05;;;;;;;30.02;19.00;;;3.90;74.70;;;;;;5022117;28;20103;-73
2020/12/17 04:22:32;;;;;;;29.55;19.90;;;3.80;74.00;;;;;;5013164;28;20483;-72
2020/12/17 04:25:00;;;;;;;28.55;18.98;;;3.70;74.40;;;;;;5015706;28;20061;-71
2020/12/17 04:27:27;;;;;;;29.98;19.98;;;3.70;75.90;;;;;;5017333;28;20041;-72
2020/12/17 04:29:54;;;;;;;33.90;20.40;;;3.70;75.70;;;;;;5014412;28;20046;-71
2020/12/17 04:32:20;;;;;;;30.48;19.33;;;3.70;76.00;;;;;;5024139;28;20057;-71
2020/12/17 04:34:47;;;;;;;32.85;20.40;;;3.70;75.90;;;;;;5019918;28;20053;-72
2020/12/17 04:37:15;;;;;;;28.00;19.83;;;3.60;75.50;;;;;;5011500;28;20048;-72
2020/12/17 04:39:42;;;;;;;28.77;18.95;;;3.70;76.50;;;;;;5009149;28;20112;-71
2020/12/17 04:42:11;;;;;;;35.13;18.90;;;3.70;75.90;;;;;;5015528;28;20053;-71
2020/12/17 04:44:38;;;;;;;29.42;19.25;;;3.70;75.30;;;;;;5021905;28;20053;-71
2020/12/17 04:47:06;;;;;;;30.98;19.65;;;3.70;75.00;;;;;;5017610;28;20105;-72
2020/12/17 04:49:36;;;;;;;26.55;18.63;;;3.70;74.90;;;;;;5014251;28;20051;-72
2020/12/17 04:52:03;;;;;;;28.75;18.83;;;3.70;75.10;;;;;;5018874;28;20468;-73
2020/12/17 04:54:32;;;;;;;27.77;19.15;;;3.70;74.70;;;;;;5011020;28;20041;-73
2020/12/17 04:57:07;;;;;;;26.75;17.25;;;3.70;75.10;;;;;;5009726;28;20136;-74
2020/12/17 04:59:45;;;;;;;28.52;19.27;;;3.80;74.70;;;;;;5005738;28;20050;-73
2020/12/17 05:02:15;;;;;;;27.27;18.33;;;3.80;73.20;;;;;;5009069;28;20042;-73
2020/12/17 05:04:43;;;;;;;29.85;17.23;;;3.80;74.00;;;;;;5011393;28;20063;-72
2020/12/17 05:07:12;;;;;;;27.55;18.13;;;3.80;74.70;;;;;;5008060;28;20424;-72
2020/12/17 05:09:41;;;;;;;31.92;18.90;;;3.80;74.40;;;;;;5008718;28;20058;-72
2020/12/17 05:12:08;;;;;;;26.77;18.50;;;3.80;74.10;;;;;;5010116;28;20052;-72
2020/12/17 05:14:36;;;;;;;27.17;18.73;;;3.70;74.10;;;;;;5009807;28;20052;-72
2020/12/17 05:17:04;;;;;;;30.58;20.05;;;3.60;74.20;;;;;;5007563;28;20052;-72
2020/12/17 05:19:31;;;;;;;27.85;17.85;;;3.60;74.90;;;;;;5006011;28;20050;-72
2020/12/17 05:21:59;;;;;;;29.02;18.15;;;3.60;75.10;;;;;;5010316;28;20061;-72
2020/12/17 05:24:26;;;;;;;35.22;18.30;;;3.70;75.60;;;;;;5008194;28;20052;-72
2020/12/17 05:26:55;;;;;;;28.63;18.48;;;3.70;75.80;;;;;;5009444;28;20046;-73
2020/12/17 05:29:22;;;;;;;27.13;17.90;;;3.70;75.30;;;;;;5007458;28;20046;-72
2020/12/17 05:31:50;;;;;;;37.55;20.02;;;3.70;75.00;;;;;;5008844;28;20041;-72
2020/12/17 05:34:18;;;;;;;27.90;17.85;;;3.80;75.00;;;;;;5008938;28;20176;-72
2020/12/17 05:36:46;;;;;;;28.15;18.23;;;3.70;74.40;;;;;;5008636;28;20057;-73
2020/12/17 05:39:15;;;;;;;26.90;17.02;;;3.80;74.70;;;;;;5005802;28;20054;-73
2020/12/17 05:41:43;;;;;;;25.80;17.25;;;3.80;74.70;;;;;;5010393;28;20046;-72
2020/12/17 05:44:11;;;;;;;25.58;16.98;;;3.80;73.50;;;;;;5009393;28;20061;-73
2020/12/17 05:46:39;;;;;;;26.17;17.33;;;3.80;74.20;;;;;;5009778;28;20057;-72
2020/12/17 05:49:15;;;;;;;25.92;16.98;;;3.80;73.90;;;;;;5007578;28;20038;-73
2020/12/17 05:51:44;;;;;;;30.50;17.42;;;3.70;73.80;;;;;;5009792;28;20066;-73
2020/12/17 05:54:21;;;;;;;26.38;15.88;;;3.80;74.10;;;;;;5013341;28;20081;-72
2020/12/17 05:56:50;;;;;;;23.65;14.82;;;3.80;73.30;;;;;;5008721;28;20054;-73
2020/12/17 05:59:23;;;;;;;24.20;16.38;;;3.80;73.40;;;;;;5007441;28;20080;-72
2020/12/17 06:01:51;;;;;;;23.88;16.35;;;3.80;73.20;;;;;;5009526;28;20052;-72
2020/12/17 06:04:18;;;;;;;23.65;16.20;;;3.80;73.30;;;;;;5011817;28;20050;-72
2020/12/17 06:06:47;;;;;;;26.95;17.10;;;3.80;73.20;;;;;;5011378;28;20056;-72
2020/12/17 06:09:22;;;;;;;24.63;15.48;;;3.80;73.20;;;;;;5009367;28;20115;-73
2020/12/17 06:11:50;;;;;;;22.92;16.23;;;3.80;73.20;;;;;;5010532;28;20177;-73
2020/12/17 06:14:21;;;;;;;26.30;16.23;;;3.80;72.60;;;;;;5008781;28;20115;-72
2020/12/17 06:16:53;;;;;;;23.30;15.73;;;3.90;72.60;;;;;;5010609;28;20046;-72
2020/12/17 06:19:23;;;;;;;28.52;18.38;;;3.90;72.60;;;;;;5006797;28;20054;-72
2020/12/17 06:21:51;;;;;;;25.75;17.27;;;3.90;73.30;;;;;;5009823;28;20037;-72
2020/12/17 06:24:19;;;;;;;26.23;17.77;;;4.00;72.80;;;;;;5009978;28;20054;-72
2020/12/17 06:26:51;;;;;;;25.65;17.08;;;4.10;71.70;;;;;;5009251;28;20052;-72
2020/12/17 06:29:20;;;;;;;23.65;16.45;;;4.20;70.00;;;;;;5008914;28;20080;-73
2020/12/17 06:31:56;;;;;;;27.70;17.63;;;4.20;69.00;;;;;;5013475;28;20491;-73
2020/12/17 06:34:23;;;;;;;30.13;16.83;;;4.30;67.80;;;;;;5014024;28;20455;-73
2020/12/17 06:36:57;;;;;;;24.25;16.05;;;4.40;66.00;;;;;;5012080;28;20057;-72
2020/12/17 06:39:24;;;;;;;23.15;15.38;;;4.40;65.80;;;;;;5012017;28;20045;-72
2020/12/17 06:41:51;;;;;;;23.10;14.63;;;4.50;65.10;;;;;;5012811;28;20053;-71
2020/12/17 06:44:31;;;;;;;25.83;15.82;;;4.50;64.10;;;;;;5012267;28;20131;-73
2020/12/17 06:47:00;;;;;;;24.08;15.48;;;4.50;63.30;;;;;;5010322;28;20397;-72
2020/12/17 06:49:28;;;;;;;24.73;15.10;;;4.50;62.60;;;;;;5009976;28;20393;-72
2020/12/17 06:52:04;;;;;;;22.70;13.40;;;4.60;62.40;;;;;;5011871;28;20151;-72
2020/12/17 06:54:40;;;;;;;25.63;15.82;;;4.50;61.80;;;;;;5014959;28;20053;-73
2020/12/17 06:57:09;;;;;;;22.65;14.45;;;4.60;61.90;;;;;;5010901;28;20062;-73
2020/12/17 06:59:37;;;;;;;23.42;14.90;;;4.70;61.90;;;;;;5009556;28;20046;-73
2020/12/17 07:02:05;;;;;;;20.42;13.98;;;4.70;60.50;;;;;;5011070;28;20046;-72
2020/12/17 07:04:42;;;;;;;18.45;13.05;;;4.70;58.70;;;;;;5013376;28;20060;-73
2020/12/17 07:07:17;;;;;;;19.75;13.57;;;4.70;59.30;;;;;;5013038;28;20054;-72
2020/12/17 07:09:46;;;;;;;20.75;13.18;;;4.70;58.10;;;;;;5008969;28;20057;-72
2020/12/17 07:12:40;;;;;;;23.35;13.25;;;4.70;58.40;;;;;;5011116;28;20042;-73
2020/12/17 07:15:29;;;;;;;20.67;12.63;;;4.70;58.90;;;;;;5011205;28;20058;-72
2020/12/17 07:18:17;;;;;;;19.40;12.40;;;4.70;58.60;;;;;;5008191;28;20046;-74
2020/12/17 07:20:45;;;;;;;16.98;12.18;;;4.80;58.00;;;;;;5012578;28;20065;-72
2020/12/17 07:23:14;;;;;;;19.80;12.35;;;4.80;57.60;;;;;;5010143;28;20073;-73
2020/12/17 07:25:43;;;;;;;21.33;12.98;;;4.90;57.90;;;;;;5013129;28;20133;-71
2020/12/17 07:28:13;;;;;;;21.48;12.95;;;4.90;56.20;;;;;;5003690;28;20567;-74
2020/12/17 07:30:51;;;;;;;20.02;12.52;;;4.90;56.30;;;;;;5012663;28;20053;-73
2020/12/17 07:33:41;;;;;;;18.67;12.45;;;5.00;56.30;;;;;;5009079;28;20171;-71
2020/12/17 07:36:09;;;;;;;19.77;12.73;;;5.00;56.30;;;;;;5010619;28;20050;-73
2020/12/17 07:38:39;;;;;;;17.02;11.43;;;5.00;56.30;;;;;;5006870;28;20480;-72
2020/12/17 07:41:24;;;;;;;19.20;13.02;;;5.00;55.50;;;;;;5011235;28;20053;-72
2020/12/17 07:43:52;;;;;;;18.40;12.20;;;5.00;54.60;;;;;;5011532;28;20435;-72
2020/12/17 07:46:36;;;;;;;18.88;11.68;;;5.00;55.40;;;;;;5009304;28;20045;-72
2020/12/17 07:49:19;;;;;;;18.70;11.70;;;5.00;54.60;;;;;;5004750;28;20423;-73
2020/12/17 07:51:46;;;;;;;21.20;11.80;;;5.10;55.10;;;;;;5013724;28;20140;-73
2020/12/17 07:54:19;;;;;;;17.17;12.00;;;5.00;54.30;;;;;;5010258;28;20050;-73
2020/12/17 07:56:59;;;;;;;17.52;11.90;;;5.10;55.10;;;;;;5009972;28;20136;-76
2020/12/17 07:59:26;;;;;;;18.20;11.50;;;5.10;54.20;;;;;;5006716;28;20042;-74
2020/12/17 08:01:57;;;;;;;17.20;10.25;;;5.10;54.40;;;;;;5010820;28;20048;-72
2020/12/17 08:04:24;;;;;;;18.85;11.80;;;5.10;54.40;;;;;;5011617;28;20042;-73
2020/12/17 08:06:51;;;;;;;16.40;10.65;;;5.10;54.20;;;;;;5009185;28;20064;-72
2020/12/17 08:09:19;;;;;;;18.58;10.07;;;5.20;52.80;;;;;;5007898;28;20046;-72
2020/12/17 08:11:54;;;;;;;19.85;11.00;;;5.20;53.20;;;;;;5012237;28;20054;-71
2020/12/17 08:14:23;;;;;;;22.50;13.15;;;5.20;52.50;;;;;;5012430;28;20053;-72
2020/12/17 08:16:51;;;;;;;14.95;11.02;;;5.30;51.90;;;;;;5010486;28;20137;-72
2020/12/17 08:19:18;;;;;;;20.50;11.13;;;5.30;51.40;;;;;;5009980;28;20127;-73
2020/12/17 08:21:45;;;;;;;19.77;11.15;;;5.20;51.00;;;;;;5011793;28;20057;-73
2020/12/17 08:24:13;;;;;;;13.60;10.00;;;5.20;51.60;;;;;;5013620;28;20046;-72
2020/12/17 08:26:41;;;;;;;21.85;11.73;;;5.10;51.90;;;;;;5010268;28;20051;-73
2020/12/17 08:29:08;;;;;;;15.65;10.57;;;5.10;52.30;;;;;;5008125;28;20052;-73
2020/12/17 08:31:34;;;;;;;15.38;10.63;;;5.10;53.10;;;;;;5011063;28;20529;-72
2020/12/17 08:34:04;;;;;;;16.08;9.55;;;5.10;53.10;;;;;;5014399;28;20053;-74
2020/12/17 08:36:33;;;;;;;17.77;11.35;;;5.10;52.40;;;;;;5010383;28;20067;-72
2020/12/17 08:39:04;;;;;;;16.60;10.20;;;5.10;52.50;;;;;;5008275;28;20049;-73
2020/12/17 08:41:49;;;;;;;20.67;11.30;;;5.00;52.70;;;;;;5009476;28;20098;-72
2020/12/17 08:44:18;;;;;;;19.95;11.13;;;5.10;53.70;;;;;;5012159;28;20045;-72
2020/12/17 08:46:47;;;;;;;19.05;11.68;;;5.10;52.50;;;;;;5010982;28;20061;-73
2020/12/17 08:49:17;;;;;;;21.52;10.90;;;5.20;52.60;;;;;;5008642;28;20045;-73
2020/12/17 08:51:46;;;;;;;14.18;9.90;;;5.20;53.20;;;;;;5009534;28;20061;-72
2020/12/17 08:54:24;;;;;;;13.95;10.23;;;5.40;51.50;;;;;;5010618;28;20496;-73
2020/12/17 08:57:00;;;;;;;15.30;9.20;;;5.50;50.70;;;;;;5010727;28;20064;-72
2020/12/17 08:59:27;;;;;;;12.48;9.27;;;5.60;50.10;;;;;;5006061;28;20384;-73
2020/12/17 09:01:54;;;;;;;13.43;9.63;;;5.70;49.10;;;;;;5010091;28;20066;-73
2020/12/17 09:04:21;;;;;;;16.45;8.95;;;5.90;47.90;;;;;;5011317;28;20806;-73
2020/12/17 09:06:51;;;;;;;13.05;8.48;;;5.80;45.90;;;;;;5009395;28;20046;-72
2020/12/17 09:09:25;;;;;;;12.65;8.60;;;5.90;46.40;;;;;;5006246;28;20050;-73
2020/12/17 09:12:04;;;;;;;14.05;9.48;;;5.80;46.80;;;;;;5010935;28;20050;-72
2020/12/17 09:14:32;;;;;;;16.35;9.13;;;5.90;47.00;;;;;;5008455;28;20613;-72
2020/12/17 09:17:08;;;;;;;14.30;9.15;;;5.80;47.00;;;;;;5010338;28;20048;-72
2020/12/17 09:19:35;;;;;;;12.77;8.20;;;5.90;47.00;;;;;;5007140;28;20416;-73
2020/12/17 09:22:02;;;;;;;15.32;8.77;;;5.90;47.70;;;;;;5010945;28;20125;-73
2020/12/17 09:24:30;;;;;;;13.40;8.43;;;5.90;47.00;;;;;;5010272;28;20052;-73
2020/12/17 09:27:16;;;;;;;12.75;7.47;;;6.00;47.10;;;;;;5012377;28;20109;-73
2020/12/17 09:29:57;;;;;;;18.60;8.82;;;6.20;46.40;;;;;;5007618;28;20428;-72
2020/12/17 09:32:24;;;;;;;12.77;8.55;;;6.40;45.20;;;;;;5008159;28;20435;-73
2020/12/17 09:35:00;;;;;;;19.23;8.18;;;6.50;44.20;;;;;;5009291;28;20050;-73
2020/12/17 09:37:27;;;;;;;12.43;7.07;;;6.60;43.10;;;;;;5009507;28;20056;-72
2020/12/17 09:39:54;;;;;;;12.05;7.82;;;6.70;42.00;;;;;;5008260;28;20049;-73
2020/12/17 09:42:25;;;;;;;11.93;7.40;;;6.80;41.50;;;;;;5009526;28;20781;-73
2020/12/17 09:44:52;;;;;;;13.88;7.82;;;6.90;40.70;;;;;;5010309;28;20050;-73
2020/12/17 09:47:33;;;;;;;24.77;9.20;;;7.00;40.20;;;;;;5006858;28;20527;-73
2020/12/17 09:50:11;;;;;;;14.02;7.57;;;7.00;39.70;;;;;;5007652;28;20046;-73
2020/12/17 09:52:38;;;;;;;20.23;7.65;;;7.10;39.80;;;;;;5009389;28;20060;-73
2020/12/17 09:55:06;;;;;;;12.77;7.60;;;7.20;39.50;;;;;;5010500;28;20057;-73
2020/12/17 09:57:41;;;;;;;16.92;8.18;;;7.30;39.20;;;;;;5008460;28;20103;-72
2020/12/17 10:00:09;;;;;;;12.43;7.72;;;7.30;39.10;;;;;;5004790;28;20050;-73
2020/12/17 10:02:37;;;;;;;14.25;8.63;;;7.50;38.60;;;;;;5011010;28;20064;-73
2020/12/17 10:05:05;;;;;;;14.43;7.97;;;7.50;38.80;;;;;;5012475;28;20050;-73
2020/12/17 10:07:31;;;;;;;10.75;6.90;;;7.60;37.40;;;;;;5012296;28;20894;-73
2020/12/17 10:09:59;;;;;;;16.52;9.02;;;7.70;36.60;;;;;;5010544;28;20049;-73
2020/12/17 10:12:41;;;;;;;15.27;7.05;;;7.90;35.50;;;;;;5013017;28;20066;-74
2020/12/17 10:15:08;;;;;;;9.20;6.55;;;8.00;33.70;;;;;;5019753;28;20050;-72
2020/12/17 10:17:35;;;;;;;10.80;5.97;;;8.30;32.40;;;;;;5018451;28;20088;-71
2020/12/17 10:20:03;;;;;;;10.75;7.47;;;8.30;32.30;;;;;;5012539;28;20507;-74
2020/12/17 10:22:42;;;;;;;11.13;6.93;;;8.20;32.10;;;;;;5015923;28;20053;-72
2020/12/17 10:25:09;;;;;;;15.90;7.03;;;8.30;31.80;;;;;;5015068;28;20133;-72
2020/12/17 10:27:36;;;;;;;11.98;6.60;;;8.30;32.30;;;;;;5016479;28;20060;-71
2020/12/17 10:30:04;;;;;;;12.00;6.70;;;8.40;31.70;;;;;;5015408;28;20424;-71
2020/12/17 10:32:31;;;;;;;10.32;6.65;;;8.50;31.60;;;;;;5016103;28;20053;-71
2020/12/17 10:34:58;;;;;;;9.70;6.18;;;8.60;30.40;;;;;;5016698;28;20050;-73
2020/12/17 10:37:25;;;;;;;11.02;6.28;;;8.60;29.70;;;;;;5017651;28;20137;-71
2020/12/17 10:39:52;;;;;;;18.23;7.57;;;8.70;29.70;;;;;;5010942;28;20476;-72
2020/12/17 10:42:20;;;;;;;21.45;6.88;;;8.80;29.10;;;;;;5015315;28;20433;-72
2020/12/17 10:44:47;;;;;;;18.63;6.53;;;8.90;28.70;;;;;;5014840;28;20046;-72
2020/12/17 10:47:14;;;;;;;12.68;6.78;;;8.90;27.70;;;;;;5015363;28;20073;-72
2020/12/17 10:49:41;;;;;;;11.45;6.00;;;8.90;27.70;;;;;;5008948;28;20049;-72
2020/12/17 10:52:09;;;;;;;9.63;5.95;;;8.90;27.30;;;;;;5020451;28;20073;-72
2020/12/17 10:54:36;;;;;;;12.32;6.55;;;9.10;27.50;;;;;;5012812;28;20045;-73
2020/12/17 10:57:03;;;;;;;9.82;6.68;;;9.20;26.90;;;;;;5012592;28;20057;-73
2020/12/17 10:59:30;;;;;;;9.70;5.90;;;9.40;25.90;;;;;;5006326;28;20132;-74
2020/12/17 11:01:57;;;;;;;8.35;5.97;;;9.50;25.90;;;;;;5011729;28;20423;-72
2020/12/17 11:04:25;;;;;;;9.15;5.50;;;9.50;25.80;;;;;;5013669;28;20046;-73
2020/12/17 11:06:55;;;;;;;14.18;7.15;;;9.60;25.40;;;;;;5009385;28;20061;-74
2020/12/17 11:09:22;;;;;;;8.35;5.18;;;9.70;25.70;;;;;;5007344;28;20053;-73
2020/12/17 11:11:50;;;;;;;9.43;5.10;;;9.90;25.80;;;;;;5012978;28;20049;-72
2020/12/17 11:14:17;;;;;;;6.07;3.97;;;10.10;23.70;;;;;;5008921;28;20109;-73
2020/12/17 11:16:44;;;;;;;9.02;5.45;;;10.20;23.60;;;;;;5007368;28;20504;-73
2020/12/17 11:19:11;;;;;;;7.95;5.88;;;10.00;25.10;;;;;;5009121;28;20500;-73
2020/12/17 11:21:39;;;;;;;10.55;6.30;;;9.80;27.40;;;;;;5013000;28;20065;-74
2020/12/17 11:24:05;;;;;;;8.55;6.28;;;9.60;28.20;;;;;;5012865;28;20053;-73
2020/12/17 11:26:32;;;;;;;7.60;5.47;;;9.50;28.10;;;;;;5013851;28;20416;-74
2020/12/17 11:28:59;;;;;;;9.50;6.60;;;9.40;27.60;;;;;;5009853;28;20719;-73
2020/12/17 11:31:28;;;;;;;9.68;6.53;;;9.40;27.50;;;;;;5009755;28;20046;-72
2020/12/17 11:33:55;;;;;;;11.15;6.57;;;9.40;28.20;;;;;;5011042;28;20065;-74
2020/12/17 11:36:22;;;;;;;9.65;5.70;;;9.40;27.00;;;;;;5012275;28;20164;-72
2020/12/17 11:38:49;;;;;;;10.75;7.13;;;9.40;26.90;;;;;;5012406;28;20037;-72
2020/12/17 11:41:16;;;;;;;12.38;6.57;;;9.40;28.10;;;;;;5008599;28;20052;-71
2020/12/17 11:43:44;;;;;;;13.75;6.60;;;9.50;27.90;;;;;;5011767;28;20483;-73
2020/12/17 11:46:11;;;;;;;9.85;6.13;;;9.40;27.50;;;;;;5011407;28;20046;-72
2020/12/17 11:48:37;;;;;;;7.30;5.85;;;9.50;27.60;;;;;;5009803;28;20049;-72
2020/12/17 11:51:04;;;;;;;10.57;5.70;;;9.50;27.70;;;;;;5008012;28;20053;-73
2020/12/17 11:53:31;;;;;;;9.57;6.55;;;9.60;26.90;;;;;;5011817;28;20411;-72
2020/12/17 11:55:59;;;;;;;12.98;6.43;;;9.60;27.20;;;;;;5011626;28;20045;-72
2020/12/17 11:58:26;;;;;;;7.55;5.50;;;9.70;26.00;;;;;;5009386;28;20041;-72
2020/12/17 12:00:52;;;;;;;11.05;6.05;;;9.60;26.00;;;;;;5009931;28;20061;-73
2020/12/17 12:03:19;;;;;;;14.07;6.72;;;9.60;26.70;;;;;;5012033;28;20042;-73
2020/12/17 12:05:46;;;;;;;11.95;7.13;;;9.50;27.90;;;;;;5009151;28;20496;-73
2020/12/17 12:08:13;;;;;;;9.77;6.68;;;9.50;28.30;;;;;;5007708;28;20046;-73
2020/12/17 12:10:40;;;;;;;8.70;6.75;;;9.50;28.70;;;;;;5009004;28;20046;-73
2020/12/17 12:13:07;;;;;;;10.05;6.60;;;9.50;28.20;;;;;;5010091;28;20053;-73
2020/12/17 12:15:34;;;;;;;13.18;6.07;;;9.40;29.10;;;;;;5008702;28;20060;-72
2020/12/17 12:18:01;;;;;;;10.68;5.65;;;9.40;28.50;;;;;;5005329;28;20461;-72
2020/12/17 12:20:28;;;;;;;10.20;6.30;;;9.40;27.70;;;;;;5007535;28;20144;-72
2020/12/17 12:22:54;;;;;;;13.50;6.82;;;9.40;28.10;;;;;;5009881;28;20053;-73
2020/12/17 12:25:21;;;;;;;11.50;6.85;;;9.50;29.30;;;;;;5009018;28;20424;-72
2020/12/17 12:27:48;;;;;;;11.77;6.72;;;9.40;30.10;;;;;;5009241;28;20045;-74
2020/12/17 12:30:16;;;;;;;11.07;7.47;;;9.40;30.80;;;;;;5007831;28;20177;-71
2020/12/17 12:32:43;;;;;;;11.82;7.60;;;9.40;31.10;;;;;;5009756;28;20045;-72
2020/12/17 12:35:11;;;;;;;11.13;6.57;;;9.40;32.10;;;;;;5011443;28;20046;-73
2020/12/17 12:37:37;;;;;;;13.35;6.95;;;9.40;32.00;;;;;;5006368;28;20053;-72
2020/12/17 12:40:08;;;;;;;15.60;8.00;;;9.40;33.30;;;;;;5007389;28;20049;-72
2020/12/17 12:42:35;;;;;;;8.82;6.25;;;9.30;33.20;;;;;;5011999;28;20099;-73
2020/12/17 12:45:04;;;;;;;11.15;8.05;;;9.40;31.60;;;;;;5009100;28;20053;-73
2020/12/17 12:47:32;;;;;;;15.27;9.30;;;9.50;30.70;;;;;;5007651;28;20057;-72
2020/12/17 12:49:59;;;;;;;11.75;6.07;;;9.50;32.50;;;;;;5006170;28;20045;-74
2020/12/17 12:52:25;;;;;;;10.68;5.57;;;9.50;32.00;;;;;;5013144;28;20048;-75